createdAt,value
2022-12-15T00:02:19.979Z,5.03
2022-12-15T00:05:06.637Z,4.05
2022-12-15T00:07:53.341Z,4.30
2022-12-15T00:10:39.221Z,4.25
2022-12-15T00:13:32.879Z,3.92
2022-12-15T00:16:19.036Z,4.07
2022-12-15T00:19:04.851Z,4.78
2022-12-15T00:21:50.861Z,4.28
2022-12-15T00:24:36.826Z,4.38
2022-12-15T00:27:23.653Z,4.47
2022-12-15T00:30:09.583Z,4.03
2022-12-15T00:32:55.755Z,4.55
2022-12-15T00:35:41.601Z,3.80
2022-12-15T00:38:29.989Z,4.20
2022-12-15T00:40:59.674Z,4.00
2022-12-15T00:43:28.869Z,4.10
2022-12-15T00:46:15.541Z,4.55
2022-12-15T00:48:43.678Z,4.10
2022-12-15T00:51:11.734Z,4.32
2022-12-15T00:53:58.265Z,3.63
2022-12-15T00:56:44.642Z,3.75
2022-12-15T00:59:32.814Z,4.00
2022-12-15T01:02:19.067Z,4.15
2022-12-15T01:05:04.934Z,4.65
2022-12-15T01:07:51.264Z,4.03
2022-12-15T01:10:38.904Z,4.72
2022-12-15T01:13:25.092Z,3.88
2022-12-15T01:16:11.388Z,4.63
2022-12-15T01:18:56.879Z,4.57
2022-12-15T01:22:33.870Z,4.22
2022-12-15T01:25:01.168Z,4.13
2022-12-15T01:27:28.459Z,3.42
2022-12-15T01:29:55.703Z,3.72
2022-12-15T01:32:22.993Z,3.88
2022-12-15T01:34:50.357Z,3.85
2022-12-15T01:37:17.727Z,3.67
2022-12-15T01:40:23.237Z,4.07
2022-12-15T01:42:51.310Z,3.80
2022-12-15T01:45:47.155Z,3.97
2022-12-15T01:48:20.115Z,4.47
2022-12-15T01:51:00.314Z,3.95
2022-12-15T01:53:34.057Z,4.03
2022-12-15T01:56:03.867Z,3.75
2022-12-15T01:58:31.374Z,4.22
2022-12-15T02:00:58.783Z,4.55
2022-12-15T02:03:26.329Z,4.13
2022-12-15T02:05:55.346Z,4.10
2022-12-15T02:08:22.769Z,3.88
2022-12-15T02:11:11.633Z,3.97
2022-12-15T02:14:09.249Z,3.80
2022-12-15T02:17:04.169Z,4.30
2022-12-15T02:19:34.323Z,4.35
2022-12-15T02:22:04.322Z,4.25
2022-12-15T02:24:56.223Z,4.63
2022-12-15T02:27:41.857Z,4.28
2022-12-15T02:30:17.166Z,4.43
2022-12-15T02:32:56.678Z,4.38
2022-12-15T02:35:53.668Z,3.75
2022-12-15T02:38:37.222Z,3.90
2022-12-15T02:41:06.683Z,4.13
2022-12-15T02:43:38.961Z,3.90
2022-12-15T02:46:31.257Z,4.03
2022-12-15T02:49:19.004Z,4.45
2022-12-15T02:52:03.146Z,4.07
2022-12-15T02:55:07.501Z,5.15
2022-12-15T02:57:42.334Z,4.10
2022-12-15T03:00:11.505Z,4.20
2022-12-15T03:02:44.847Z,4.03
2022-12-15T03:05:14.039Z,4.45
2022-12-15T03:07:42.865Z,4.30
2022-12-15T03:10:13.079Z,4.03
2022-12-15T03:12:40.542Z,3.65
2022-12-15T03:15:08.488Z,4.43
2022-12-15T03:17:35.849Z,4.75
2022-12-15T03:20:03.699Z,4.57
2022-12-15T03:22:31.804Z,4.35
2022-12-15T03:24:59.124Z,4.43
2022-12-15T03:27:26.535Z,4.45
2022-12-15T03:29:53.769Z,3.95
2022-12-15T03:32:21.206Z,4.47
2022-12-15T03:34:48.426Z,4.07
2022-12-15T03:37:15.991Z,4.32
2022-12-15T03:39:43.267Z,5.20
2022-12-15T03:42:10.608Z,4.18
2022-12-15T03:44:37.886Z,4.18
2022-12-15T03:47:05.937Z,4.88
2022-12-15T03:49:33.234Z,4.50
2022-12-15T03:52:00.538Z,3.97
2022-12-15T03:54:27.820Z,4.75
2022-12-15T03:56:55.380Z,4.75
2022-12-15T03:59:22.726Z,4.45
2022-12-15T04:01:50.124Z,4.10
2022-12-15T04:04:17.718Z,4.80
2022-12-15T04:06:45.093Z,4.80
2022-12-15T04:09:12.324Z,4.68
2022-12-15T04:11:39.701Z,4.88
2022-12-15T04:14:06.984Z,4.90
2022-12-15T04:16:34.416Z,5.10
2022-12-15T04:19:20.348Z,4.88
2022-12-15T04:21:47.677Z,5.15
2022-12-15T04:24:33.565Z,5.43
2022-12-15T04:27:19.445Z,5.07
2022-12-15T04:30:05.123Z,4.68
2022-12-15T04:32:50.893Z,5.13
2022-12-15T04:35:37.318Z,5.03
2022-12-15T04:38:22.995Z,4.68
2022-12-15T04:41:08.818Z,4.78
2022-12-15T04:43:54.603Z,4.90
2022-12-15T04:46:40.478Z,4.90
2022-12-15T04:49:26.366Z,4.53
2022-12-15T04:52:12.113Z,5.20
2022-12-15T04:54:57.877Z,5.05
2022-12-15T04:57:43.685Z,5.10
2022-12-15T05:00:30.198Z,5.13
2022-12-15T05:03:29.839Z,5.22
2022-12-15T05:06:16.374Z,4.90
2022-12-15T05:09:02.228Z,4.40
2022-12-15T05:11:48.230Z,4.40
2022-12-15T05:14:33.946Z,4.85
2022-12-15T05:17:19.815Z,5.13
2022-12-15T05:20:05.515Z,4.60
2022-12-15T05:22:51.414Z,4.80
2022-12-15T05:25:37.553Z,5.03
2022-12-15T05:28:26.055Z,5.88
2022-12-15T05:31:12.008Z,5.10
2022-12-15T05:33:39.400Z,4.70
2022-12-15T05:36:07.084Z,4.65
2022-12-15T05:38:34.393Z,5.25
2022-12-15T05:41:01.858Z,4.95
2022-12-15T05:43:29.739Z,4.85
2022-12-15T05:45:57.399Z,4.70
2022-12-15T05:48:25.524Z,4.68
2022-12-15T05:50:52.811Z,5.55
2022-12-15T05:53:20.235Z,5.10
2022-12-15T05:55:47.547Z,4.60
2022-12-15T05:58:14.794Z,5.13
2022-12-15T06:00:42.016Z,5.40
2022-12-15T06:03:09.373Z,4.82
2022-12-15T06:05:36.761Z,5.60
2022-12-15T06:08:04.201Z,4.82
2022-12-15T06:10:31.561Z,4.20
2022-12-15T06:12:58.913Z,4.85
2022-12-15T06:15:26.162Z,5.57
2022-12-15T06:17:55.813Z,5.15
2022-12-15T06:20:23.278Z,5.60
2022-12-15T06:22:50.590Z,4.82
2022-12-15T06:25:18.069Z,5.55
2022-12-15T06:27:45.402Z,4.80
2022-12-15T06:30:13.177Z,5.53
2022-12-15T06:32:40.486Z,5.35
2022-12-15T06:35:08.232Z,5.82
2022-12-15T06:37:35.770Z,4.82
2022-12-15T06:40:03.189Z,4.38
2022-12-15T06:42:30.522Z,4.97
2022-12-15T06:44:57.824Z,4.53
2022-12-15T06:47:25.205Z,4.55
2022-12-15T06:49:52.487Z,4.85
2022-12-15T06:52:19.751Z,4.68
2022-12-15T06:54:47.038Z,5.03
2022-12-15T06:57:14.445Z,4.45
2022-12-15T06:59:41.726Z,4.80
2022-12-15T07:02:23.720Z,5.13
2022-12-15T07:04:54.525Z,5.80
2022-12-15T07:07:21.752Z,4.75
2022-12-15T07:09:49.017Z,4.72
2022-12-15T07:12:16.401Z,5.07
2022-12-15T07:14:46.468Z,4.97
2022-12-15T07:17:20.449Z,5.47
2022-12-15T07:19:47.672Z,4.70
2022-12-15T07:22:14.936Z,5.07
2022-12-15T07:24:42.165Z,5.18
2022-12-15T07:27:09.494Z,4.82
2022-12-15T07:29:36.777Z,5.15
2022-12-15T07:32:04.738Z,4.95
2022-12-15T07:34:32.241Z,4.68
2022-12-15T07:36:59.583Z,5.20
2022-12-15T07:39:27.468Z,4.80
2022-12-15T07:41:54.800Z,4.97
2022-12-15T07:44:22.126Z,5.20
2022-12-15T07:46:49.516Z,4.63
2022-12-15T07:49:17.634Z,5.53
2022-12-15T07:51:45.092Z,4.97
2022-12-15T07:54:14.415Z,4.97
2022-12-15T07:56:42.361Z,4.75
2022-12-15T07:59:10.052Z,5.15
2022-12-15T08:01:37.505Z,4.65
2022-12-15T08:04:05.096Z,4.80
2022-12-15T08:06:32.661Z,5.22
2022-12-15T08:08:59.980Z,4.88
2022-12-15T08:11:27.358Z,4.97
2022-12-15T08:14:03.531Z,4.30
2022-12-15T08:16:34.531Z,5.38
2022-12-15T08:19:03.787Z,5.53
2022-12-15T08:21:32.287Z,5.30
2022-12-15T08:24:02.825Z,4.75
2022-12-15T08:26:31.260Z,4.97
2022-12-15T08:29:32.169Z,5.18
2022-12-15T08:31:51.506Z,5.57
2022-12-15T08:34:19.012Z,5.35
2022-12-15T08:36:46.416Z,6.57
2022-12-15T08:39:13.943Z,8.35
2022-12-15T08:41:41.680Z,9.15
2022-12-15T08:44:09.212Z,8.98
2022-12-15T08:46:36.717Z,9.25
2022-12-15T08:49:04.553Z,10.13
2022-12-15T08:51:32.802Z,9.95
2022-12-15T08:54:01.067Z,10.10
2022-12-15T08:56:29.717Z,10.63
2022-12-15T08:58:59.703Z,10.90
2022-12-15T09:01:31.190Z,10.18
2022-12-15T09:03:59.519Z,8.73
2022-12-15T09:06:33.107Z,7.82
2022-12-15T09:09:02.820Z,6.97
2022-12-15T09:11:30.740Z,8.18
2022-12-15T09:13:58.853Z,8.27
2022-12-15T09:16:27.964Z,6.97
2022-12-15T09:18:58.187Z,6.47
2022-12-15T09:21:29.013Z,6.95
2022-12-15T09:24:00.852Z,6.93
2022-12-15T09:26:33.634Z,6.40
2022-12-15T09:29:02.085Z,6.20
2022-12-15T09:31:32.878Z,6.38
2022-12-15T09:34:01.292Z,6.63
2022-12-15T09:36:30.411Z,5.82
2022-12-15T09:38:58.785Z,6.05
2022-12-15T09:41:34.725Z,5.47
2022-12-15T09:44:24.685Z,6.22
2022-12-15T09:46:54.756Z,5.75
2022-12-15T09:49:38.202Z,6.38
2022-12-15T09:54:41.830Z,5.95
2022-12-15T09:57:24.549Z,6.70
2022-12-15T10:00:17.701Z,6.15
2022-12-15T10:03:00.467Z,6.22
2022-12-15T10:06:14.784Z,6.32
2022-12-15T10:08:40.988Z,5.70
2022-12-15T10:11:24.500Z,5.47
2022-12-15T10:13:57.932Z,5.78
2022-12-15T10:16:28.125Z,5.80
2022-12-15T10:19:04.758Z,6.28
2022-12-15T10:21:32.599Z,5.80
2022-12-15T10:25:07.301Z,6.55
2022-12-15T10:27:43.305Z,5.60
2022-12-15T10:30:13.936Z,6.63
2022-12-15T10:32:51.925Z,6.63
2022-12-15T10:35:30.185Z,6.55
2022-12-15T10:38:05.242Z,6.35
2022-12-15T10:43:39.487Z,6.47
2022-12-15T10:46:19.058Z,6.88
2022-12-15T10:48:49.950Z,6.70
2022-12-15T10:51:42.631Z,6.30
2022-12-15T10:54:09.870Z,6.22
2022-12-15T10:56:50.201Z,6.13
2022-12-15T10:59:33.993Z,6.18
2022-12-15T11:02:27.445Z,6.60
2022-12-15T11:07:23.748Z,5.88
2022-12-15T11:10:00.428Z,6.30
2022-12-15T11:12:50.659Z,6.10
2022-12-15T11:15:24.126Z,6.30
2022-12-15T11:18:20.799Z,5.88
2022-12-15T11:20:58.672Z,6.15
2022-12-15T11:23:36.251Z,5.95
2022-12-15T11:26:18.694Z,6.45
2022-12-15T11:28:53.063Z,6.72
2022-12-15T11:31:27.117Z,6.82
2022-12-15T11:33:55.091Z,5.80
2022-12-15T11:36:48.481Z,5.55
2022-12-15T11:39:15.848Z,6.40
2022-12-15T11:42:04.500Z,6.47
2022-12-15T11:44:45.337Z,6.55
2022-12-15T11:47:44.917Z,6.20
2022-12-15T11:50:25.535Z,6.13
2022-12-15T11:53:18.363Z,6.68
2022-12-15T11:55:59.251Z,7.05
2022-12-15T11:58:32.578Z,6.30
2022-12-15T12:01:06.039Z,6.90
2022-12-15T12:06:36.160Z,6.32
2022-12-15T12:09:31.999Z,6.55
2022-12-15T12:12:21.066Z,6.47
2022-12-15T12:14:50.884Z,6.53
2022-12-15T12:17:29.000Z,6.68
2022-12-15T12:20:01.283Z,6.40
2022-12-15T12:22:37.630Z,6.55
2022-12-15T12:25:12.925Z,6.68
2022-12-15T12:27:55.092Z,6.97
2022-12-15T12:30:25.998Z,6.85
2022-12-15T12:33:02.670Z,6.07
2022-12-15T12:35:41.015Z,6.68
2022-12-15T12:38:12.534Z,6.07
2022-12-15T12:40:46.716Z,6.32
2022-12-15T12:43:34.090Z,6.28
2022-12-15T12:46:27.115Z,8.38
2022-12-15T12:49:07.152Z,6.85
2022-12-15T12:51:40.746Z,5.70
2022-12-15T12:54:31.017Z,7.40
2022-12-15T12:56:58.723Z,6.28
2022-12-15T12:59:29.112Z,6.28
2022-12-15T13:02:33.924Z,7.47
2022-12-15T13:05:22.676Z,6.97
2022-12-15T13:08:17.401Z,7.20
2022-12-15T13:10:47.286Z,6.63
2022-12-15T13:13:31.302Z,6.65
2022-12-15T13:16:10.933Z,7.28
2022-12-15T13:18:57.026Z,6.38
2022-12-15T13:21:55.152Z,6.80
2022-12-15T13:24:37.536Z,6.88
2022-12-15T13:27:20.402Z,6.15
2022-12-15T13:30:02.767Z,7.18
2022-12-15T13:32:34.445Z,7.05
2022-12-15T13:35:21.850Z,6.45
2022-12-15T13:37:50.860Z,6.50
2022-12-15T13:40:39.393Z,5.75
2022-12-15T13:43:06.658Z,5.53
2022-12-15T13:45:48.854Z,6.18
2022-12-15T13:48:53.496Z,6.45
2022-12-15T13:51:45.829Z,6.23
2022-12-15T13:54:23.687Z,6.03
2022-12-15T13:57:13.062Z,6.03
2022-12-15T13:59:40.295Z,6.20
2022-12-15T14:02:27.653Z,5.70
2022-12-15T14:05:12.527Z,6.80
2022-12-15T14:07:42.562Z,5.78
2022-12-15T14:10:19.648Z,6.70
2022-12-15T14:12:50.145Z,6.35
2022-12-15T14:15:25.349Z,5.60
2022-12-15T14:17:55.638Z,5.45
2022-12-15T14:20:26.472Z,6.20
2022-12-15T14:22:55.002Z,6.05
2022-12-15T14:25:29.587Z,6.05
2022-12-15T14:27:57.261Z,6.13
2022-12-15T14:30:29.915Z,5.63
2022-12-15T14:33:13.411Z,6.85
2022-12-15T14:35:49.432Z,6.38
2022-12-15T14:38:26.370Z,6.22
2022-12-15T14:40:57.293Z,5.55
2022-12-15T14:43:32.880Z,6.45
2022-12-15T14:46:11.619Z,6.40
2022-12-15T14:48:42.975Z,6.22
2022-12-15T14:51:13.861Z,5.97
2022-12-15T14:53:43.483Z,6.88
2022-12-15T14:56:25.753Z,5.78
2022-12-15T14:59:18.649Z,6.20
2022-12-15T15:01:58.516Z,6.22
2022-12-15T15:03:11.248Z,6.32
2022-12-15T15:04:32.772Z,5.82
2022-12-15T15:07:02.705Z,6.45
2022-12-15T15:09:39.487Z,5.55
2022-12-15T15:12:08.494Z,6.28
2022-12-15T15:14:41.936Z,6.22
2022-12-15T15:17:35.820Z,6.15
2022-12-15T15:20:08.112Z,5.78
2022-12-15T15:22:41.850Z,6.10
2022-12-15T15:25:39.451Z,5.93
2022-12-15T15:28:21.312Z,6.40
2022-12-15T15:31:05.415Z,6.18
2022-12-15T15:33:33.433Z,5.38
2022-12-15T15:36:02.682Z,5.68
2022-12-15T15:38:37.865Z,5.68
2022-12-15T15:41:14.034Z,6.50
2022-12-15T15:43:41.601Z,6.25
2022-12-15T15:46:15.175Z,5.70
2022-12-15T15:49:04.754Z,5.47
2022-12-15T15:51:33.326Z,5.80
2022-12-15T15:54:08.269Z,5.93
2022-12-15T15:56:35.668Z,7.03
2022-12-15T15:59:11.307Z,5.90
2022-12-15T16:01:38.762Z,6.82
2022-12-15T16:04:09.140Z,6.28
2022-12-15T16:06:38.795Z,6.68
2022-12-15T16:09:12.783Z,6.32
2022-12-15T16:11:40.352Z,6.03
2022-12-15T16:14:17.781Z,5.75
2022-12-15T16:16:45.757Z,5.68
2022-12-15T16:19:13.173Z,6.03
2022-12-15T16:21:42.677Z,6.50
2022-12-15T16:24:15.221Z,6.03
2022-12-15T16:26:47.842Z,6.25
2022-12-15T16:29:16.699Z,6.07
2022-12-15T16:31:49.956Z,6.13
2022-12-15T16:34:17.723Z,6.50
2022-12-15T16:36:45.311Z,5.45
2022-12-15T16:39:35.981Z,5.93
2022-12-15T16:42:04.192Z,5.88
2022-12-15T16:44:31.572Z,6.22
2022-12-15T16:46:59.141Z,6.18
2022-12-15T16:49:27.873Z,5.90
2022-12-15T16:51:55.615Z,5.63
2022-12-15T16:54:26.574Z,5.57
2022-12-15T16:56:56.030Z,5.90
2022-12-15T16:59:34.974Z,6.47
2022-12-15T17:02:33.467Z,5.72
2022-12-15T17:05:00.926Z,5.85
2022-12-15T17:07:28.439Z,6.80
2022-12-15T17:09:56.568Z,6.18
2022-12-15T17:12:23.865Z,5.85
2022-12-15T17:14:51.126Z,6.30
2022-12-15T17:17:19.931Z,6.18
2022-12-15T17:20:19.997Z,6.25
2022-12-15T17:22:37.099Z,6.30
2022-12-15T17:25:04.961Z,6.78
2022-12-15T17:27:32.346Z,6.20
2022-12-15T17:30:00.890Z,5.85
2022-12-15T17:32:28.161Z,5.85
2022-12-15T17:34:55.895Z,5.93
2022-12-15T17:37:26.149Z,5.88
2022-12-15T17:39:56.607Z,6.75
2022-12-15T17:42:23.901Z,5.65
2022-12-15T17:44:51.796Z,5.97
2022-12-15T17:47:19.647Z,5.65
2022-12-15T17:49:47.535Z,5.85
2022-12-15T17:52:27.295Z,6.05
2022-12-15T17:54:55.206Z,6.47
2022-12-15T17:57:22.979Z,6.75
2022-12-15T17:59:50.341Z,7.10
2022-12-15T18:02:17.755Z,6.40
2022-12-15T18:04:45.302Z,6.57
2022-12-15T18:07:19.352Z,6.40
2022-12-15T18:09:47.882Z,6.85
2022-12-15T18:12:24.471Z,6.97
2022-12-15T18:14:52.112Z,6.97
2022-12-15T18:17:20.323Z,7.30
2022-12-15T18:19:47.985Z,6.40
2022-12-15T18:22:23.691Z,6.97
2022-12-15T18:24:53.109Z,6.88
2022-12-15T18:27:28.949Z,5.82
2022-12-15T18:29:56.793Z,6.45
2022-12-15T18:32:26.595Z,7.05
2022-12-15T18:34:54.571Z,7.25
2022-12-15T18:37:24.737Z,6.75
2022-12-15T18:39:52.818Z,6.18
2022-12-15T18:42:22.865Z,6.47
2022-12-15T18:44:53.559Z,6.18
2022-12-15T18:47:25.659Z,6.53
2022-12-15T18:49:53.004Z,7.53
2022-12-15T18:52:23.312Z,6.55
2022-12-15T18:54:52.594Z,7.07
2022-12-15T18:57:30.856Z,6.85
2022-12-15T19:00:01.909Z,7.18
2022-12-15T19:02:29.340Z,7.10
2022-12-15T19:04:56.837Z,7.47
2022-12-15T19:07:24.445Z,6.85
2022-12-15T19:09:51.938Z,6.80
2022-12-15T19:12:19.290Z,6.82
2022-12-15T19:14:48.979Z,8.00
2022-12-15T19:17:39.653Z,7.18
2022-12-15T19:20:37.329Z,7.60
2022-12-15T19:23:06.488Z,7.53
2022-12-15T19:25:35.334Z,7.43
2022-12-15T19:28:02.719Z,8.75
2022-12-15T19:30:38.588Z,8.57
2022-12-15T19:33:10.210Z,7.28
2022-12-15T19:35:38.966Z,7.22
2022-12-15T19:38:07.337Z,7.07
2022-12-15T19:40:36.966Z,7.85
2022-12-15T19:43:04.492Z,7.22
2022-12-15T19:45:32.988Z,8.55
2022-12-15T19:48:00.549Z,7.95
2022-12-15T19:50:36.793Z,8.20
2022-12-15T19:53:16.214Z,7.78
2022-12-15T19:55:44.251Z,6.75
2022-12-15T19:58:27.814Z,6.93
2022-12-15T20:01:01.811Z,7.40
2022-12-15T20:03:31.059Z,6.82
2022-12-15T20:06:01.084Z,7.55
2022-12-15T20:08:34.488Z,6.57
2022-12-15T20:11:02.069Z,6.53
2022-12-15T20:13:30.023Z,7.30
2022-12-15T20:15:58.311Z,6.53
2022-12-15T20:18:25.776Z,7.13
2022-12-15T20:20:53.547Z,6.30
2022-12-15T20:23:26.668Z,7.10
2022-12-15T20:28:27.846Z,6.45
2022-12-15T20:33:23.545Z,6.32
2022-12-15T20:35:51.395Z,6.68
2022-12-15T20:38:46.000Z,7.20
2022-12-15T20:41:20.767Z,7.00
2022-12-15T20:43:49.013Z,6.82
2022-12-15T20:46:22.945Z,6.85
2022-12-15T20:48:52.344Z,6.63
2022-12-15T20:51:44.900Z,6.82
2022-12-15T20:54:20.657Z,6.75
2022-12-15T20:56:49.857Z,5.57
2022-12-15T20:59:20.927Z,6.60
2022-12-15T21:01:48.799Z,6.53
2022-12-15T21:04:32.751Z,6.40
2022-12-15T21:07:00.359Z,6.30
2022-12-15T21:09:34.134Z,6.13
2022-12-15T21:12:07.344Z,6.40
2022-12-15T21:14:36.933Z,6.68
2022-12-15T21:17:04.512Z,6.93
2022-12-15T21:19:31.865Z,6.68
2022-12-15T21:22:01.109Z,6.53
2022-12-15T21:24:28.953Z,6.90
2022-12-15T21:27:34.931Z,6.35
2022-12-15T21:30:02.500Z,6.47
2022-12-15T21:32:35.749Z,6.65
2022-12-15T21:35:05.568Z,6.40
2022-12-15T21:38:07.423Z,5.80
2022-12-15T21:40:38.788Z,6.25
2022-12-15T21:43:14.527Z,6.50
2022-12-15T21:45:51.164Z,5.63
2022-12-15T21:48:37.186Z,6.10
2022-12-15T21:51:04.709Z,6.50
2022-12-15T21:53:32.579Z,5.60
2022-12-15T21:56:05.607Z,5.93
2022-12-15T22:01:06.907Z,5.18
2022-12-15T22:03:38.523Z,5.28
2022-12-15T22:06:59.564Z,5.00
2022-12-15T22:14:03.508Z,5.80
2022-12-15T22:16:30.902Z,5.25
2022-12-15T22:18:58.627Z,5.72
2022-12-15T22:21:26.080Z,5.57
2022-12-15T22:23:54.413Z,5.55
2022-12-15T22:26:30.506Z,5.22
2022-12-15T22:29:01.594Z,4.85
2022-12-15T22:31:29.123Z,5.45
2022-12-15T22:33:56.573Z,4.70
2022-12-15T22:36:23.898Z,5.28
2022-12-15T22:38:51.412Z,5.32
2022-12-15T22:41:21.471Z,5.05
2022-12-15T22:43:52.073Z,5.32
2022-12-15T22:46:22.556Z,4.25
2022-12-15T22:48:52.376Z,4.60
2022-12-15T22:51:20.127Z,4.15
2022-12-15T22:53:47.544Z,4.60
2022-12-15T22:56:30.973Z,4.72
2022-12-15T23:01:29.730Z,4.57
2022-12-15T23:03:57.647Z,4.53
2022-12-15T23:06:27.163Z,4.60
2022-12-15T23:08:56.243Z,4.53
2022-12-15T23:11:39.526Z,5.00
2022-12-15T23:14:18.411Z,4.80
2022-12-15T23:16:46.650Z,4.45
2022-12-15T23:19:24.030Z,4.88
2022-12-15T23:21:51.816Z,3.80
2022-12-15T23:24:19.108Z,4.63
2022-12-15T23:26:46.402Z,4.45
2022-12-15T23:29:14.153Z,4.32
2022-12-15T23:31:41.649Z,4.38
2022-12-15T23:34:08.984Z,3.85
2022-12-15T23:36:36.509Z,4.47
2022-12-15T23:39:03.821Z,4.50
2022-12-15T23:41:31.282Z,5.00
2022-12-15T23:43:58.672Z,4.00
2022-12-15T23:46:26.029Z,3.75
2022-12-15T23:48:53.411Z,4.93
2022-12-15T23:51:22.322Z,5.20
2022-12-15T23:53:49.673Z,4.45
2022-12-15T23:56:21.385Z,3.80
2022-12-15T23:58:58.833Z,4.43
